sensor_id;sensor_type;location;lat;lon;timestamp;pressure;altitude;pressure_sealevel;temperature;humidity
7532;BME280;3807;49.030;8.714;2022-10-22T00:01:58;98996.50;;;16.49;78.10
7532;BME280;3807;49.030;8.714;2022-10-22T00:04:24;99012.38;;;16.55;77.97
7532;BME280;3807;49.030;8.714;2022-10-22T00:06:49;99009.47;;;16.47;78.07
7532;BME280;3807;49.030;8.714;2022-10-22T00:09:14;99010.41;;;16.46;78.22
7532;BME280;3807;49.030;8.714;2022-10-22T00:11:40;98997.78;;;16.56;77.70
7532;BME280;3807;49.030;8.714;2022-10-22T00:14:06;98978.63;;;16.47;77.92
7532;BME280;3807;49.030;8.714;2022-10-22T00:16:32;98969.97;;;16.35;78.63
7532;BME280;3807;49.030;8.714;2022-10-22T00:18:57;98981.28;;;16.46;78.09
7532;BME280;3807;49.030;8.714;2022-10-22T00:21:22;98997.00;;;16.41;78.15
7532;BME280;3807;49.030;8.714;2022-10-22T00:23:49;98997.09;;;16.39;78.12
7532;BME280;3807;49.030;8.714;2022-10-22T00:26:15;98999.50;;;16.42;78.09
7532;BME280;3807;49.030;8.714;2022-10-22T00:28:40;98978.50;;;16.36;78.04
7532;BME280;3807;49.030;8.714;2022-10-22T00:31:06;98970.28;;;16.43;77.95
7532;BME280;3807;49.030;8.714;2022-10-22T00:33:31;98969.72;;;16.38;78.07
7532;BME280;3807;49.030;8.714;2022-10-22T00:35:57;98966.34;;;16.38;78.18
7532;BME280;3807;49.030;8.714;2022-10-22T00:38:23;98969.09;;;16.35;78.12
7532;BME280;3807;49.030;8.714;2022-10-22T00:40:48;98971.03;;;16.31;78.22
7532;BME280;3807;49.030;8.714;2022-10-22T00:43:16;98970.97;;;16.33;78.25
7532;BME280;3807;49.030;8.714;2022-10-22T00:45:42;98984.19;;;16.27;78.52
7532;BME280;3807;49.030;8.714;2022-10-22T00:48:09;99011.16;;;16.34;78.18
7532;BME280;3807;49.030;8.714;2022-10-22T00:50:41;99022.44;;;16.31;78.17
7532;BME280;3807;49.030;8.714;2022-10-22T00:53:12;99028.44;;;16.32;78.22
7532;BME280;3807;49.030;8.714;2022-10-22T00:55:40;99024.44;;;16.40;77.80
7532;BME280;3807;49.030;8.714;2022-10-22T00:58:06;99022.81;;;16.39;77.78
7532;BME280;3807;49.030;8.714;2022-10-22T01:00:31;99020.44;;;16.36;77.92
7532;BME280;3807;49.030;8.714;2022-10-22T01:02:57;99028.62;;;16.29;78.15
7532;BME280;3807;49.030;8.714;2022-10-22T01:05:26;99023.94;;;16.35;77.92
7532;BME280;3807;49.030;8.714;2022-10-22T01:07:53;99018.19;;;16.44;77.26
7532;BME280;3807;49.030;8.714;2022-10-22T01:10:47;99008.06;;;16.56;76.90
7532;BME280;3807;49.030;8.714;2022-10-22T01:13:35;99018.37;;;16.41;77.41
7532;BME280;3807;49.030;8.714;2022-10-22T01:16:13;99009.31;;;16.36;77.54
7532;BME280;3807;49.030;8.714;2022-10-22T01:19:05;99006.38;;;16.28;78.10
7532;BME280;3807;49.030;8.714;2022-10-22T01:21:41;99005.19;;;16.33;77.64
7532;BME280;3807;49.030;8.714;2022-10-22T01:27:23;99011.25;;;16.32;77.80
7532;BME280;3807;49.030;8.714;2022-10-22T01:29:53;99002.28;;;16.25;78.03
7532;BME280;3807;49.030;8.714;2022-10-22T01:32:22;98997.34;;;16.22;78.12
7532;BME280;3807;49.030;8.714;2022-10-22T01:34:57;99011.81;;;16.23;78.09
7532;BME280;3807;49.030;8.714;2022-10-22T01:37:27;99015.13;;;16.25;77.93
7532;BME280;3807;49.030;8.714;2022-10-22T01:39:58;99015.13;;;16.25;77.92
7532;BME280;3807;49.030;8.714;2022-10-22T01:42:25;99017.87;;;16.22;77.94
7532;BME280;3807;49.030;8.714;2022-10-22T01:44:50;99033.47;;;16.19;78.18
7532;BME280;3807;49.030;8.714;2022-10-22T01:53:04;99057.50;;;16.32;77.25
7532;BME280;3807;49.030;8.714;2022-10-22T01:55:50;99061.72;;;16.33;77.31
7532;BME280;3807;49.030;8.714;2022-10-22T02:01:46;99088.78;;;16.25;77.76
7532;BME280;3807;49.030;8.714;2022-10-22T02:04:19;99086.94;;;16.41;77.10
7532;BME280;3807;49.030;8.714;2022-10-22T02:06:49;99089.00;;;16.22;77.84
7532;BME280;3807;49.030;8.714;2022-10-22T02:09:16;99090.66;;;16.23;77.74
7532;BME280;3807;49.030;8.714;2022-10-22T02:11:44;99081.19;;;16.23;77.64
7532;BME280;3807;49.030;8.714;2022-10-22T02:14:11;99073.94;;;16.15;77.88
7532;BME280;3807;49.030;8.714;2022-10-22T02:16:42;99066.31;;;16.14;77.93
7532;BME280;3807;49.030;8.714;2022-10-22T02:19:36;99054.41;;;16.13;78.03
7532;BME280;3807;49.030;8.714;2022-10-22T02:22:03;99038.34;;;16.09;78.18
7532;BME280;3807;49.030;8.714;2022-10-22T02:24:29;99030.47;;;16.12;77.96
7532;BME280;3807;49.030;8.714;2022-10-22T02:27:00;99028.06;;;16.24;77.55
7532;BME280;3807;49.030;8.714;2022-10-22T02:29:53;99018.16;;;16.17;77.68
7532;BME280;3807;49.030;8.714;2022-10-22T02:32:24;99010.37;;;16.19;77.65
7532;BME280;3807;49.030;8.714;2022-10-22T02:34:52;98999.75;;;16.11;77.88
7532;BME280;3807;49.030;8.714;2022-10-22T02:37:19;98985.69;;;16.02;78.31
7532;BME280;3807;49.030;8.714;2022-10-22T02:39:45;98981.84;;;16.09;78.06
7532;BME280;3807;49.030;8.714;2022-10-22T02:42:11;98994.94;;;16.19;77.67
7532;BME280;3807;49.030;8.714;2022-10-22T02:44:37;98987.34;;;16.03;78.19
7532;BME280;3807;49.030;8.714;2022-10-22T02:47:02;98977.72;;;16.07;78.03
7532;BME280;3807;49.030;8.714;2022-10-22T02:49:28;98974.25;;;16.08;78.01
7532;BME280;3807;49.030;8.714;2022-10-22T02:51:53;98980.47;;;16.18;77.44
7532;BME280;3807;49.030;8.714;2022-10-22T02:54:19;98978.34;;;16.10;77.83
7532;BME280;3807;49.030;8.714;2022-10-22T02:56:44;98981.28;;;16.18;77.32
7532;BME280;3807;49.030;8.714;2022-10-22T02:59:09;98957.78;;;16.10;77.52
7532;BME280;3807;49.030;8.714;2022-10-22T03:01:35;98958.56;;;15.98;78.05
7532;BME280;3807;49.030;8.714;2022-10-22T03:04:00;98975.31;;;16.04;77.99
7532;BME280;3807;49.030;8.714;2022-10-22T03:06:25;98988.25;;;16.16;77.37
7532;BME280;3807;49.030;8.714;2022-10-22T03:08:51;98986.97;;;16.09;77.65
7532;BME280;3807;49.030;8.714;2022-10-22T03:11:16;98985.34;;;16.08;77.64
7532;BME280;3807;49.030;8.714;2022-10-22T03:13:41;98989.84;;;16.05;77.61
7532;BME280;3807;49.030;8.714;2022-10-22T03:16:07;98995.03;;;16.03;77.79
7532;BME280;3807;49.030;8.714;2022-10-22T03:18:32;98991.22;;;15.96;78.08
7532;BME280;3807;49.030;8.714;2022-10-22T03:21:26;98979.37;;;16.08;77.69
7532;BME280;3807;49.030;8.714;2022-10-22T03:23:52;98970.09;;;16.05;77.59
7532;BME280;3807;49.030;8.714;2022-10-22T03:26:18;98974.78;;;15.99;77.99
7532;BME280;3807;49.030;8.714;2022-10-22T03:28:44;98955.50;;;16.06;77.68
7532;BME280;3807;49.030;8.714;2022-10-22T03:31:11;98962.88;;;15.98;77.98
7532;BME280;3807;49.030;8.714;2022-10-22T03:33:37;98950.84;;;15.98;77.94
7532;BME280;3807;49.030;8.714;2022-10-22T03:36:02;98957.81;;;15.96;77.83
7532;BME280;3807;49.030;8.714;2022-10-22T03:38:28;98966.44;;;16.09;77.50
7532;BME280;3807;49.030;8.714;2022-10-22T03:40:54;98976.81;;;16.08;77.25
7532;BME280;3807;49.030;8.714;2022-10-22T03:43:19;98980.94;;;15.96;77.84
7532;BME280;3807;49.030;8.714;2022-10-22T03:45:44;98982.66;;;16.10;77.08
7532;BME280;3807;49.030;8.714;2022-10-22T03:48:10;98990.00;;;16.02;77.35
7532;BME280;3807;49.030;8.714;2022-10-22T03:50:35;99008.81;;;16.02;77.45
7532;BME280;3807;49.030;8.714;2022-10-22T03:53:00;99006.78;;;15.93;77.83
7532;BME280;3807;49.030;8.714;2022-10-22T03:55:26;99014.97;;;16.00;77.58
7532;BME280;3807;49.030;8.714;2022-10-22T03:57:51;99012.78;;;16.08;77.07
7532;BME280;3807;49.030;8.714;2022-10-22T04:00:17;99027.16;;;15.96;77.72
7532;BME280;3807;49.030;8.714;2022-10-22T04:02:42;99021.94;;;15.83;78.25
7532;BME280;3807;49.030;8.714;2022-10-22T04:05:08;99019.47;;;15.82;78.27
7532;BME280;3807;49.030;8.714;2022-10-22T04:07:33;99030.94;;;15.76;78.51
7532;BME280;3807;49.030;8.714;2022-10-22T04:09:58;99032.31;;;15.82;78.37
7532;BME280;3807;49.030;8.714;2022-10-22T04:12:24;99036.72;;;15.80;78.29
7532;BME280;3807;49.030;8.714;2022-10-22T04:14:49;99039.72;;;15.72;78.51
7532;BME280;3807;49.030;8.714;2022-10-22T04:17:14;99042.72;;;15.64;78.93
7532;BME280;3807;49.030;8.714;2022-10-22T04:19:40;99035.28;;;15.60;79.17
7532;BME280;3807;49.030;8.714;2022-10-22T04:22:05;99029.16;;;15.62;78.99
7532;BME280;3807;49.030;8.714;2022-10-22T04:24:31;99029.72;;;15.67;78.79
7532;BME280;3807;49.030;8.714;2022-10-22T04:26:56;99028.81;;;15.68;78.58
7532;BME280;3807;49.030;8.714;2022-10-22T04:29:22;99031.47;;;15.67;78.71
7532;BME280;3807;49.030;8.714;2022-10-22T04:31:48;99043.13;;;15.87;77.51
7532;BME280;3807;49.030;8.714;2022-10-22T04:34:13;99032.31;;;15.96;77.25
7532;BME280;3807;49.030;8.714;2022-10-22T04:36:38;99032.41;;;15.94;77.12
7532;BME280;3807;49.030;8.714;2022-10-22T04:39:04;99043.38;;;15.96;77.11
7532;BME280;3807;49.030;8.714;2022-10-22T04:41:32;99039.66;;;15.88;77.34
7532;BME280;3807;49.030;8.714;2022-10-22T04:43:58;99051.56;;;15.89;77.36
7532;BME280;3807;49.030;8.714;2022-10-22T04:46:26;99046.78;;;15.83;77.48
7532;BME280;3807;49.030;8.714;2022-10-22T04:48:52;99053.31;;;15.74;77.78
7532;BME280;3807;49.030;8.714;2022-10-22T04:51:20;99055.69;;;15.77;77.67
7532;BME280;3807;49.030;8.714;2022-10-22T04:53:45;99053.47;;;15.85;77.31
7532;BME280;3807;49.030;8.714;2022-10-22T04:56:19;99060.47;;;15.83;77.31
7532;BME280;3807;49.030;8.714;2022-10-22T04:58:50;99066.69;;;15.79;77.41
7532;BME280;3807;49.030;8.714;2022-10-22T05:01:18;99064.41;;;15.75;77.66
7532;BME280;3807;49.030;8.714;2022-10-22T05:03:44;99071.63;;;15.82;77.37
7532;BME280;3807;49.030;8.714;2022-10-22T05:06:11;99086.56;;;15.76;77.52
7532;BME280;3807;49.030;8.714;2022-10-22T05:08:37;99082.84;;;15.81;77.19
7532;BME280;3807;49.030;8.714;2022-10-22T05:11:16;99091.34;;;15.82;77.09
7532;BME280;3807;49.030;8.714;2022-10-22T05:13:42;99084.66;;;15.79;77.18
7532;BME280;3807;49.030;8.714;2022-10-22T05:16:08;99090.53;;;15.81;77.01
7532;BME280;3807;49.030;8.714;2022-10-22T05:18:37;99099.16;;;15.80;77.03
7532;BME280;3807;49.030;8.714;2022-10-22T05:21:06;99107.13;;;15.76;77.07
7532;BME280;3807;49.030;8.714;2022-10-22T05:23:32;99107.66;;;15.66;77.74
7532;BME280;3807;49.030;8.714;2022-10-22T05:26:03;99112.03;;;15.64;77.73
7532;BME280;3807;49.030;8.714;2022-10-22T05:28:30;99120.41;;;15.68;77.54
7532;BME280;3807;49.030;8.714;2022-10-22T05:30:57;99119.41;;;15.70;77.39
7532;BME280;3807;49.030;8.714;2022-10-22T05:33:23;99119.25;;;15.88;76.76
7532;BME280;3807;49.030;8.714;2022-10-22T05:35:49;99115.13;;;15.85;76.66
7532;BME280;3807;49.030;8.714;2022-10-22T05:38:15;99121.62;;;15.77;77.04
7532;BME280;3807;49.030;8.714;2022-10-22T05:40:41;99124.72;;;15.67;77.21
7532;BME280;3807;49.030;8.714;2022-10-22T05:43:06;99134.72;;;15.72;77.10
7532;BME280;3807;49.030;8.714;2022-10-22T05:45:36;99141.75;;;15.68;77.35
7532;BME280;3807;49.030;8.714;2022-10-22T05:48:01;99154.44;;;15.71;77.04
7532;BME280;3807;49.030;8.714;2022-10-22T05:50:27;99152.16;;;15.65;77.29
7532;BME280;3807;49.030;8.714;2022-10-22T05:52:52;99159.84;;;15.67;77.25
7532;BME280;3807;49.030;8.714;2022-10-22T05:55:17;99162.72;;;15.61;77.50
7532;BME280;3807;49.030;8.714;2022-10-22T05:57:43;99167.03;;;15.60;77.59
7532;BME280;3807;49.030;8.714;2022-10-22T06:00:08;99173.81;;;15.61;77.41
7532;BME280;3807;49.030;8.714;2022-10-22T06:02:34;99170.94;;;15.52;77.75
7532;BME280;3807;49.030;8.714;2022-10-22T06:04:59;99171.59;;;15.55;77.60
7532;BME280;3807;49.030;8.714;2022-10-22T06:07:25;99170.75;;;15.55;77.70
7532;BME280;3807;49.030;8.714;2022-10-22T06:09:50;99172.66;;;15.67;76.90
7532;BME280;3807;49.030;8.714;2022-10-22T06:12:18;99177.94;;;15.64;77.23
7532;BME280;3807;49.030;8.714;2022-10-22T06:14:43;99184.72;;;15.65;77.13
7532;BME280;3807;49.030;8.714;2022-10-22T06:17:10;99189.66;;;15.69;76.71
7532;BME280;3807;49.030;8.714;2022-10-22T06:19:36;99188.09;;;15.65;76.97
7532;BME280;3807;49.030;8.714;2022-10-22T06:22:03;99191.03;;;15.59;77.17
7532;BME280;3807;49.030;8.714;2022-10-22T06:24:28;99196.41;;;15.55;77.32
7532;BME280;3807;49.030;8.714;2022-10-22T06:26:54;99205.19;;;15.51;77.62
7532;BME280;3807;49.030;8.714;2022-10-22T06:29:20;99196.34;;;15.56;77.26
7532;BME280;3807;49.030;8.714;2022-10-22T06:31:46;99205.69;;;15.57;77.24
7532;BME280;3807;49.030;8.714;2022-10-22T06:34:12;99209.19;;;15.56;77.31
7532;BME280;3807;49.030;8.714;2022-10-22T06:36:38;99219.19;;;15.61;77.09
7532;BME280;3807;49.030;8.714;2022-10-22T06:39:09;99225.41;;;15.57;77.14
7532;BME280;3807;49.030;8.714;2022-10-22T06:41:35;99227.88;;;15.58;77.15
7532;BME280;3807;49.030;8.714;2022-10-22T06:44:00;99222.75;;;15.58;77.08
7532;BME280;3807;49.030;8.714;2022-10-22T06:46:26;99228.25;;;15.52;77.33
7532;BME280;3807;49.030;8.714;2022-10-22T06:49:00;99235.50;;;15.44;77.66
7532;BME280;3807;49.030;8.714;2022-10-22T06:51:27;99229.53;;;15.59;77.03
7532;BME280;3807;49.030;8.714;2022-10-22T06:53:53;99230.87;;;15.51;77.30
7532;BME280;3807;49.030;8.714;2022-10-22T06:56:21;99248.09;;;15.48;77.26
7532;BME280;3807;49.030;8.714;2022-10-22T06:58:51;99249.81;;;15.64;76.82
7532;BME280;3807;49.030;8.714;2022-10-22T07:01:19;99253.91;;;15.52;77.21
7532;BME280;3807;49.030;8.714;2022-10-22T07:03:45;99248.09;;;15.48;77.22
7532;BME280;3807;49.030;8.714;2022-10-22T07:06:12;99251.50;;;15.49;77.24
7532;BME280;3807;49.030;8.714;2022-10-22T07:08:39;99256.63;;;15.49;77.39
7532;BME280;3807;49.030;8.714;2022-10-22T07:11:16;99268.81;;;15.45;77.59
7532;BME280;3807;49.030;8.714;2022-10-22T07:13:42;99269.94;;;15.40;77.78
7532;BME280;3807;49.030;8.714;2022-10-22T07:16:08;99262.84;;;15.45;77.41
7532;BME280;3807;49.030;8.714;2022-10-22T07:18:34;99269.78;;;15.43;77.55
7532;BME280;3807;49.030;8.714;2022-10-22T07:21:00;99270.44;;;15.46;77.37
7532;BME280;3807;49.030;8.714;2022-10-22T07:23:26;99282.78;;;15.40;77.72
7532;BME280;3807;49.030;8.714;2022-10-22T07:25:52;99282.47;;;15.46;77.52
7532;BME280;3807;49.030;8.714;2022-10-22T07:28:18;99277.41;;;15.44;77.48
7532;BME280;3807;49.030;8.714;2022-10-22T07:30:43;99286.09;;;15.42;77.56
7532;BME280;3807;49.030;8.714;2022-10-22T07:33:09;99289.06;;;15.50;77.13
7532;BME280;3807;49.030;8.714;2022-10-22T07:35:36;99289.34;;;15.45;77.29
7532;BME280;3807;49.030;8.714;2022-10-22T07:38:01;99302.31;;;15.42;77.37
7532;BME280;3807;49.030;8.714;2022-10-22T07:40:27;99300.69;;;15.41;77.48
7532;BME280;3807;49.030;8.714;2022-10-22T07:42:52;99306.47;;;15.45;77.17
7532;BME280;3807;49.030;8.714;2022-10-22T07:45:18;99311.00;;;15.40;77.38
7532;BME280;3807;49.030;8.714;2022-10-22T07:47:43;99314.09;;;15.46;77.12
7532;BME280;3807;49.030;8.714;2022-10-22T07:50:09;99314.41;;;15.40;77.38
7532;BME280;3807;49.030;8.714;2022-10-22T07:52:34;99325.00;;;15.50;76.79
7532;BME280;3807;49.030;8.714;2022-10-22T07:54:59;99320.28;;;15.42;77.15
7532;BME280;3807;49.030;8.714;2022-10-22T07:57:25;99315.00;;;15.45;76.91
7532;BME280;3807;49.030;8.714;2022-10-22T07:59:50;99322.44;;;15.50;76.74
7532;BME280;3807;49.030;8.714;2022-10-22T08:02:15;99328.34;;;15.52;76.60
7532;BME280;3807;49.030;8.714;2022-10-22T08:04:41;99325.34;;;15.44;76.88
7532;BME280;3807;49.030;8.714;2022-10-22T08:07:06;99324.91;;;15.36;77.09
7532;BME280;3807;49.030;8.714;2022-10-22T08:09:32;99326.75;;;15.49;76.89
7532;BME280;3807;49.030;8.714;2022-10-22T08:11:57;99328.91;;;15.41;76.94
7532;BME280;3807;49.030;8.714;2022-10-22T08:14:22;99322.09;;;15.40;77.13
7532;BME280;3807;49.030;8.714;2022-10-22T08:16:48;99319.47;;;15.42;76.95
7532;BME280;3807;49.030;8.714;2022-10-22T08:19:14;99314.34;;;15.42;76.90
7532;BME280;3807;49.030;8.714;2022-10-22T08:21:43;99318.28;;;15.47;76.65
7532;BME280;3807;49.030;8.714;2022-10-22T08:24:08;99320.78;;;15.33;77.28
7532;BME280;3807;49.030;8.714;2022-10-22T08:26:34;99320.19;;;15.44;76.79
7532;BME280;3807;49.030;8.714;2022-10-22T08:28:59;99320.88;;;15.32;77.35
7532;BME280;3807;49.030;8.714;2022-10-22T08:31:24;99313.66;;;15.38;77.08
7532;BME280;3807;49.030;8.714;2022-10-22T08:33:50;99322.94;;;15.41;76.96
7532;BME280;3807;49.030;8.714;2022-10-22T08:36:15;99324.59;;;15.42;76.96
7532;BME280;3807;49.030;8.714;2022-10-22T08:38:40;99325.75;;;15.36;77.31
7532;BME280;3807;49.030;8.714;2022-10-22T08:49:18;99324.03;;;15.53;76.51
7532;BME280;3807;49.030;8.714;2022-10-22T08:51:44;99323.69;;;15.43;76.78
7532;BME280;3807;49.030;8.714;2022-10-22T08:54:39;99324.91;;;15.36;77.33
7532;BME280;3807;49.030;8.714;2022-10-22T09:00:02;99337.78;;;15.52;76.60
7532;BME280;3807;49.030;8.714;2022-10-22T09:02:58;99337.69;;;15.53;76.53
7532;BME280;3807;49.030;8.714;2022-10-22T09:08:15;99346.97;;;15.56;76.56
7532;BME280;3807;49.030;8.714;2022-10-22T09:10:51;99354.56;;;15.57;76.37
7532;BME280;3807;49.030;8.714;2022-10-22T09:13:20;99355.91;;;15.64;76.10
7532;BME280;3807;49.030;8.714;2022-10-22T09:15:52;99357.53;;;15.65;76.29
7532;BME280;3807;49.030;8.714;2022-10-22T09:20:57;99362.94;;;15.61;76.37
7532;BME280;3807;49.030;8.714;2022-10-22T09:23:27;99362.78;;;15.64;76.30
7532;BME280;3807;49.030;8.714;2022-10-22T09:25:56;99359.53;;;15.60;76.45
7532;BME280;3807;49.030;8.714;2022-10-22T09:28:22;99362.53;;;15.53;76.68
7532;BME280;3807;49.030;8.714;2022-10-22T09:30:47;99374.13;;;15.60;76.56
7532;BME280;3807;49.030;8.714;2022-10-22T09:33:16;99381.88;;;15.58;76.54
7532;BME280;3807;49.030;8.714;2022-10-22T09:38:20;99390.75;;;15.53;76.87
7532;BME280;3807;49.030;8.714;2022-10-22T09:40:51;99390.81;;;15.51;77.08
7532;BME280;3807;49.030;8.714;2022-10-22T09:43:17;99396.84;;;15.67;76.53
7532;BME280;3807;49.030;8.714;2022-10-22T09:45:44;99400.63;;;15.60;76.86
7532;BME280;3807;49.030;8.714;2022-10-22T09:48:21;99397.75;;;15.66;76.67
7532;BME280;3807;49.030;8.714;2022-10-22T09:50:57;99399.53;;;15.64;76.58
7532;BME280;3807;49.030;8.714;2022-10-22T09:53:26;99398.87;;;15.61;77.08
7532;BME280;3807;49.030;8.714;2022-10-22T09:56:07;99395.94;;;15.68;76.56
7532;BME280;3807;49.030;8.714;2022-10-22T09:58:42;99400.41;;;15.81;76.12
7532;BME280;3807;49.030;8.714;2022-10-22T10:01:16;99405.47;;;15.82;76.02
7532;BME280;3807;49.030;8.714;2022-10-22T10:03:42;99406.72;;;15.91;75.74
7532;BME280;3807;49.030;8.714;2022-10-22T10:06:07;99411.34;;;16.00;75.32
7532;BME280;3807;49.030;8.714;2022-10-22T10:08:33;99410.47;;;16.01;75.29
7532;BME280;3807;49.030;8.714;2022-10-22T10:11:22;99410.28;;;16.04;75.43
7532;BME280;3807;49.030;8.714;2022-10-22T10:17:01;99417.16;;;16.19;75.17
7532;BME280;3807;49.030;8.714;2022-10-22T10:27:57;99414.00;;;16.60;76.18
7532;BME280;3807;49.030;8.714;2022-10-22T10:30:25;99414.75;;;16.78;75.44
7532;BME280;3807;49.030;8.714;2022-10-22T10:33:04;99417.03;;;16.83;73.81
7532;BME280;3807;49.030;8.714;2022-10-22T10:35:46;99419.28;;;16.73;74.68
7532;BME280;3807;49.030;8.714;2022-10-22T10:41:35;99417.44;;;16.91;75.95
7532;BME280;3807;49.030;8.714;2022-10-22T10:49:00;99428.28;;;16.96;75.61
7532;BME280;3807;49.030;8.714;2022-10-22T10:51:57;99426.19;;;17.03;75.29
7532;BME280;3807;49.030;8.714;2022-10-22T10:54:37;99433.56;;;17.09;75.42
7532;BME280;3807;49.030;8.714;2022-10-22T10:57:24;99423.44;;;17.34;75.23
7532;BME280;3807;49.030;8.714;2022-10-22T11:05:38;99427.13;;;17.45;75.28
7532;BME280;3807;49.030;8.714;2022-10-22T11:08:31;99422.91;;;17.58;74.45
7532;BME280;3807;49.030;8.714;2022-10-22T11:11:07;99428.22;;;17.69;74.36
7532;BME280;3807;49.030;8.714;2022-10-22T11:13:42;99428.75;;;17.74;74.43
7532;BME280;3807;49.030;8.714;2022-10-22T11:16:22;99419.84;;;17.94;73.94
7532;BME280;3807;49.030;8.714;2022-10-22T11:18:57;99414.78;;;17.93;74.01
7532;BME280;3807;49.030;8.714;2022-10-22T11:21:55;99411.25;;;18.08;73.58
7532;BME280;3807;49.030;8.714;2022-10-22T11:24:29;99418.22;;;18.20;73.42
7532;BME280;3807;49.030;8.714;2022-10-22T11:27:24;99413.38;;;18.28;73.45
7532;BME280;3807;49.030;8.714;2022-10-22T11:30:12;99422.09;;;18.13;74.34
7532;BME280;3807;49.030;8.714;2022-10-22T11:32:40;99413.28;;;18.30;73.77
7532;BME280;3807;49.030;8.714;2022-10-22T11:35:10;99406.09;;;18.48;73.40
7532;BME280;3807;49.030;8.714;2022-10-22T11:37:38;99410.19;;;18.65;72.87
7532;BME280;3807;49.030;8.714;2022-10-22T11:40:07;99406.22;;;18.73;72.90
7532;BME280;3807;49.030;8.714;2022-10-22T11:42:43;99406.75;;;18.91;72.10
7532;BME280;3807;49.030;8.714;2022-10-22T12:11:45;99392.38;;;19.64;71.53
7532;BME280;3807;49.030;8.714;2022-10-22T12:14:31;99388.38;;;19.84;71.26
7532;BME280;3807;49.030;8.714;2022-10-22T12:19:40;99388.25;;;19.98;69.62
7532;BME280;3807;49.030;8.714;2022-10-22T12:24:36;99385.72;;;20.44;69.40
7532;BME280;3807;49.030;8.714;2022-10-22T12:27:03;99375.87;;;20.26;69.33
7532;BME280;3807;49.030;8.714;2022-10-22T12:29:30;99384.91;;;20.44;68.44
7532;BME280;3807;49.030;8.714;2022-10-22T12:32:01;99383.59;;;20.62;69.16
7532;BME280;3807;49.030;8.714;2022-10-22T12:34:27;99374.97;;;20.51;70.61
7532;BME280;3807;49.030;8.714;2022-10-22T12:36:53;99371.53;;;20.50;68.70
7532;BME280;3807;49.030;8.714;2022-10-22T12:39:22;99363.16;;;20.46;69.62
7532;BME280;3807;49.030;8.714;2022-10-22T12:41:51;99359.72;;;20.70;68.92
7532;BME280;3807;49.030;8.714;2022-10-22T12:44:17;99360.69;;;20.80;68.16
7532;BME280;3807;49.030;8.714;2022-10-22T12:46:44;99355.50;;;20.80;68.00
7532;BME280;3807;49.030;8.714;2022-10-22T12:49:18;99355.63;;;20.90;67.97
7532;BME280;3807;49.030;8.714;2022-10-22T12:51:45;99356.00;;;20.85;67.92
7532;BME280;3807;49.030;8.714;2022-10-22T12:54:27;99356.44;;;20.79;66.53
7532;BME280;3807;49.030;8.714;2022-10-22T12:56:55;99357.88;;;20.83;68.80
7532;BME280;3807;49.030;8.714;2022-10-22T12:59:25;99353.63;;;20.82;67.77
7532;BME280;3807;49.030;8.714;2022-10-22T13:01:52;99367.63;;;20.80;66.63
7532;BME280;3807;49.030;8.714;2022-10-22T13:06:51;99358.00;;;21.04;65.09
7532;BME280;3807;49.030;8.714;2022-10-22T13:09:23;99353.28;;;21.09;67.63
7532;BME280;3807;49.030;8.714;2022-10-22T13:11:52;99357.78;;;21.07;68.09
7532;BME280;3807;49.030;8.714;2022-10-22T13:14:21;99360.50;;;21.17;68.68
7532;BME280;3807;49.030;8.714;2022-10-22T13:17:16;99356.81;;;21.20;66.37
7532;BME280;3807;49.030;8.714;2022-10-22T13:24:57;99362.34;;;21.15;64.93
7532;BME280;3807;49.030;8.714;2022-10-22T13:27:25;99362.94;;;21.18;65.43
7532;BME280;3807;49.030;8.714;2022-10-22T13:29:50;99363.66;;;21.21;67.29
7532;BME280;3807;49.030;8.714;2022-10-22T13:32:28;99351.06;;;21.05;67.12
7532;BME280;3807;49.030;8.714;2022-10-22T13:34:56;99355.78;;;21.00;66.07
7532;BME280;3807;49.030;8.714;2022-10-22T13:37:23;99343.78;;;21.10;65.56
7532;BME280;3807;49.030;8.714;2022-10-22T13:39:48;99349.19;;;21.18;66.61
7532;BME280;3807;49.030;8.714;2022-10-22T13:42:14;99349.41;;;21.15;67.26
7532;BME280;3807;49.030;8.714;2022-10-22T13:44:39;99348.59;;;20.92;66.67
7532;BME280;3807;49.030;8.714;2022-10-22T13:47:14;99346.09;;;21.02;65.07
7532;BME280;3807;49.030;8.714;2022-10-22T13:49:41;99344.47;;;21.01;65.59
7532;BME280;3807;49.030;8.714;2022-10-22T13:52:11;99343.75;;;21.21;63.92
7532;BME280;3807;49.030;8.714;2022-10-22T13:54:42;99344.94;;;21.28;64.92
7532;BME280;3807;49.030;8.714;2022-10-22T13:57:08;99341.97;;;21.33;65.38
7532;BME280;3807;49.030;8.714;2022-10-22T13:59:34;99344.22;;;21.15;66.10
7532;BME280;3807;49.030;8.714;2022-10-22T14:01:59;99343.41;;;21.37;64.32
7532;BME280;3807;49.030;8.714;2022-10-22T14:04:30;99345.87;;;21.27;66.23
7532;BME280;3807;49.030;8.714;2022-10-22T14:06:55;99342.34;;;21.39;66.68
7532;BME280;3807;49.030;8.714;2022-10-22T14:09:21;99346.34;;;21.21;66.63
7532;BME280;3807;49.030;8.714;2022-10-22T14:11:46;99343.66;;;21.11;67.83
7532;BME280;3807;49.030;8.714;2022-10-22T14:14:11;99342.94;;;21.32;64.04
7532;BME280;3807;49.030;8.714;2022-10-22T14:16:41;99345.41;;;21.56;66.36
7532;BME280;3807;49.030;8.714;2022-10-22T14:19:09;99344.66;;;21.65;65.71
7532;BME280;3807;49.030;8.714;2022-10-22T14:21:38;99346.72;;;21.28;66.92
7532;BME280;3807;49.030;8.714;2022-10-22T14:24:03;99349.19;;;21.52;64.23
7532;BME280;3807;49.030;8.714;2022-10-22T14:26:31;99352.59;;;21.52;66.65
7532;BME280;3807;49.030;8.714;2022-10-22T14:28:58;99352.22;;;21.57;65.48
7532;BME280;3807;49.030;8.714;2022-10-22T14:31:24;99354.34;;;21.63;62.64
7532;BME280;3807;49.030;8.714;2022-10-22T14:33:50;99344.94;;;21.51;65.51
7532;BME280;3807;49.030;8.714;2022-10-22T14:36:17;99348.09;;;21.66;65.47
7532;BME280;3807;49.030;8.714;2022-10-22T14:38:44;99349.06;;;21.53;62.70
7532;BME280;3807;49.030;8.714;2022-10-22T14:41:19;99342.91;;;21.54;66.49
7532;BME280;3807;49.030;8.714;2022-10-22T14:43:45;99353.41;;;21.53;64.04
7532;BME280;3807;49.030;8.714;2022-10-22T14:46:11;99351.66;;;21.42;64.10
7532;BME280;3807;49.030;8.714;2022-10-22T14:48:37;99344.47;;;21.57;64.92
7532;BME280;3807;49.030;8.714;2022-10-22T14:51:02;99346.56;;;21.63;63.44
7532;BME280;3807;49.030;8.714;2022-10-22T14:53:28;99352.59;;;21.52;65.58
7532;BME280;3807;49.030;8.714;2022-10-22T14:55:53;99347.63;;;21.60;66.31
7532;BME280;3807;49.030;8.714;2022-10-22T14:58:22;99351.53;;;21.55;66.22
7532;BME280;3807;49.030;8.714;2022-10-22T15:00:47;99354.59;;;21.60;65.60
7532;BME280;3807;49.030;8.714;2022-10-22T15:03:13;99352.44;;;21.65;65.54
7532;BME280;3807;49.030;8.714;2022-10-22T15:05:42;99356.13;;;21.62;64.05
7532;BME280;3807;49.030;8.714;2022-10-22T15:08:08;99363.56;;;21.56;65.22